Weather observations for the past three days for
Petaluma Municipal Airport
Imperial (Metric)
Date Time (pdt) Wind (mph) Vis. (mi.) Weather Sky Cond. Temperature (ºF) Relative Humidity Wind Chill (°F) Heat Index (°F) Pressure Precipitation (in)
Air Dwpt 6 hour altimeter (in) sea level (mb) 1 hr 3 hr 6 hr
Max. Min.
08 05:15 W 6 10.00 Overcast OVC005 50 50 100% 48 30.07 0.0
08 04:55 Calm 10.00 Overcast OVC005 50 50 100% 30.07 0.0
08 04:35 W 5 10.00 Overcast OVC005 50 50 100% 49 30.07 0.0
08 04:15 W 7 10.00 Overcast OVC005 50 50 100% 48 30.08 0.0
08 03:55 W 9 10.00 Overcast OVC006 50 50 100% 47 30.08 0.0
08 03:35 W 6 10.00 Overcast OVC007 50 50 100% 48 30.08 0.0
08 03:15 Calm 10.00 Overcast OVC007 50 50 100% 30.08 0.0
08 02:55 Vrbl 5 10.00 Overcast OVC007 50 50 100% 49 30.08 0.0
08 02:35 W 6 10.00 Overcast OVC007 50 50 100% 48 30.08 0.0
08 02:15 W 5 10.00 Overcast OVC007 50 50 100% 49 30.08 0.0
08 01:55 Vrbl 6 10.00 Overcast OVC007 50 50 100% 48 30.07 0.0
08 01:35 Vrbl 5 10.00 Overcast OVC008 50 50 100% 49 30.07 0.0
08 01:15 W 6 10.00 Overcast OVC008 50 50 100% 48 30.08 0.0
08 00:55 W 7 10.00 Overcast OVC008 50 50 100% 48 30.08 0.0
08 00:35 W 7 10.00 Overcast OVC008 51.8 51.8 100% 30.08 0.0
08 00:15 W 5 G 12 10.00 Overcast OVC008 51.8 51.8 100% 30.07 0.0
07 23:55 W 7 10.00 Overcast OVC008 51.8 51.8 100% 30.08 0.0
07 23:35 W 9 10.00 Overcast OVC008 51.8 51.8 100% 30.08 0.0
07 23:15 W 9 10.00 Overcast OVC008 51.8 51.8 100% 30.08 0.0
07 22:55 W 7 G 16 10.00 Overcast OVC007 51.8 51.8 100% 30.08 0.0
07 22:35 W 9 10.00 Overcast OVC007 51.8 51.8 100% 30.08 0.0
07 22:15 W 7 G 14 10.00 Overcast OVC007 51.8 51.8 100% 30.08 0.0
07 21:55 W 12 10.00 Overcast OVC008 51.8 51.8 100% 30.08 0.0
07 21:35 W 8 9.00 Overcast OVC008 51.8 51.8 100% 30.07 0.0
07 21:15 W 9 G 16 8.00 Overcast OVC008 51.8 51.8 100% 30.06 0.0
07 20:55 NW 8 10.00 Overcast OVC007 51.8 51.8 100% 30.06 0.0
07 20:35 Vrbl 7 G 15 10.00 Overcast OVC007 51.8 51.8 100% 30.06 0.0
07 20:15 W 10 10.00 Overcast OVC009 53.6 51.8 94% 30.06 0.0
07 19:55 W 7 G 13 10.00 Overcast OVC009 53.6 51.8 94% 30.05 0.0
07 19:35 W 9 10.00 Overcast OVC010 53.6 51.8 94% 30.05 0.0
07 19:15 Vrbl 5 G 12 10.00 Mostly Cloudy BKN011 55.4 51.8 88% 30.05 0.0
07 18:55 W 9 10.00 Partly Cloudy SCT011 55.4 51.8 88% 30.05 0.0
07 18:35 NW 7 10.00 Partly Cloudy SCT013 57.2 53.6 88% 30.05 0.0
07 18:15 W 9 10.00 Partly Cloudy SCT013 59 51.8 77% 30.05 0.0
07 17:55 W 12 10.00 Mostly Cloudy BKN014 59 51.8 77% 30.06 0.0
07 17:35 Vrbl 8 G 15 10.00 Overcast OVC014 59 51.8 77% 30.06 0.0
07 17:15 W 14 10.00 Mostly Cloudy BKN014 59 51.8 77% 30.06 0.0
07 16:55 W 15 10.00 A Few Clouds FEW014 60.8 51.8 72% 30.06 0.0
07 16:35 W 12 G 18 10.00 Fair CLR 60.8 51.8 72% 30.06 0.0
07 16:15 W 15 10.00 Fair CLR 62.6 53.6 73% 30.07 0.0
07 15:55 W 9 G 20 10.00 Fair CLR 64.4 53.6 68% 30.07 0.0
07 15:35 W 14 10.00 Fair CLR 64.4 53.6 68% 30.07 0.0
07 15:15 W 13 10.00 Fair CLR 64.4 53.6 68% 30.07 0.0
07 14:55 W 8 G 16 10.00 Fair CLR 64.4 55.4 73% 30.07 0.0
07 14:35 W 12 10.00 Fair CLR 64.4 53.6 68% 30.08 0.0
07 14:15 W 13 10.00 Fair CLR 66.2 55.4 68% 30.08 0.0
07 13:55 Vrbl 5 G 12 10.00 A Few Clouds FEW017 66.2 55.4 68% 30.09 0.0
07 13:35 Vrbl 7 10.00 A Few Clouds FEW017 66.2 55.4 68% 30.09 0.0
07 13:15 Vrbl 5 10.00 A Few Clouds FEW015 66.2 57.2 73% 30.09 0.0
07 12:55 Vrbl 6 10.00 Mostly Cloudy BKN014 64.4 55.4 73% 30.1 0.0
07 12:35 Vrbl 3 10.00 Mostly Cloudy BKN013 62.6 55.4 77% 30.11 0.0
07 12:15 Vrbl 5 10.00 Overcast OVC013 62.6 53.6 73% 30.11 0.0
07 11:55 Vrbl 5 10.00 Overcast OVC012 60.8 55.4 83% 30.12 0.0
07 11:35 Calm 10.00 Overcast OVC010 59 53.6 82% 30.12 0.0
07 11:15 Calm 10.00 Overcast OVC009 57.2 53.6 88% 30.13 0.0
07 10:55 Vrbl 3 10.00 Overcast OVC008 57.2 53.6 88% 30.12 0.0
07 10:35 Calm 10.00 Overcast OVC008 55.4 53.6 94% 30.13 0.0
07 10:15 Calm 10.00 Overcast OVC007 55.4 53.6 94% 30.13 0.0
07 09:55 NW 5 10.00 Overcast OVC006 53.6 51.8 94% 30.13 0.0
07 09:35 Calm 10.00 Overcast OVC006 53.6 51.8 94% 30.13 0.0
07 09:15 Calm 10.00 Overcast OVC006 51.8 51.8 100% 30.12 0.0
07 08:55 Calm 10.00 Overcast OVC005 51.8 51.8 100% 30.12 0.0
07 08:35 Calm 9.00 Overcast OVC005 0 0 0% 30.12 0.0
07 08:15 W 6 8.00 Overcast OVC005 50 50 100% 48 30.12 0.0
07 07:55 SW 6 9.00 Overcast OVC005 50 50 100% 48 30.12 0.0
07 07:35 W 5 6.00 Fog/Mist OVC005 50 50 100% 49 30.12 0.0
07 07:15 SW 7 6.00 Fog/Mist OVC005 50 50 100% 48 30.12 0.0
07 06:55 Calm 8.00 Overcast OVC005 50 50 100% 30.11 0.0
07 06:35 SW 3 9.00 Overcast OVC005 50 50 100% 30.11 0.0
07 06:15 W 3 9.00 Overcast OVC005 50 50 100% 30.1 0.0
07 05:55 Vrbl 3 10.00 Overcast OVC005 50 50 100% 30.1 0.0
07 05:35 W 6 9.00 Overcast OVC005 50 50 100% 48 30.1 0.0
07 05:15 W 6 10.00 Overcast OVC005 50 50 100% 48 30.1 0.0
07 04:55 W 8 10.00 Overcast OVC005 50 50 100% 47 30.1 0.0
07 04:35 NW 7 10.00 Overcast OVC005 50 50 100% 48 30.1 0.0
07 04:15 W 7 10.00 Overcast OVC005 51.8 51.8 100% 30.1 0.0
07 03:55 W 7 10.00 Overcast OVC005 51.8 51.8 100% 30.1 0.0
07 03:35 W 8 10.00 Overcast OVC006 51.8 51.8 100% 30.1 0.0
07 03:15 W 7 10.00 Overcast OVC006 51.8 51.8 100% 30.11 0.0
07 02:55 W 7 10.00 Overcast OVC006 51.8 51.8 100% 30.11 0.0
07 02:35 W 6 10.00 Overcast OVC006 51.8 51.8 100% 30.11 0.0
07 02:15 NW 6 10.00 Overcast OVC006 51.8 51.8 100% 30.11 0.0
07 01:55 W 6 10.00 Overcast OVC006 51.8 51.8 100% 30.11 0.0
07 01:35 Calm 10.00 Overcast OVC007 51.8 51.8 100% 30.11 0.0
07 01:15 W 7 10.00 Overcast OVC007 51.8 51.8 100% 30.12 0.0
07 00:55 W 7 10.00 Overcast OVC007 51.8 51.8 100% 30.12 0.0
07 00:35 W 7 10.00 Overcast OVC008 51.8 51.8 100% 30.12 0.0
07 00:15 Calm 10.00 Overcast OVC008 51.8 51.8 100% 30.12 0.0
06 23:55 W 7 10.00 Overcast OVC008 51.8 51.8 100% 30.11 0.0
06 23:35 W 7 10.00 Overcast OVC008 51.8 51.8 100% 30.11 0.0
06 23:15 W 6 10.00 Overcast OVC008 51.8 51.8 100% 30.11 0.0
06 22:55 W 7 G 13 10.00 Overcast OVC008 51.8 51.8 100% 30.11 0.0
06 22:35 W 7 10.00 Overcast OVC008 51.8 51.8 100% 30.11 0.0
06 22:15 W 8 10.00 Overcast OVC008 51.8 51.8 100% 30.11 0.0
06 21:55 W 8 10.00 Overcast OVC008 51.8 51.8 100% 30.11 0.0
06 21:35 W 8 10.00 Overcast OVC009 53.6 51.8 94% 30.11 0.0
06 21:15 W 8 10.00 Overcast OVC009 53.6 53.6 100% 30.1 0.0
06 20:55 W 12 10.00 Overcast OVC009 53.6 51.8 94% 30.1 0.0
06 20:35 W 10 10.00 Mostly Cloudy BKN009 BKN013 53.6 53.6 100% 30.1 0.0
06 20:15 Vrbl 6 G 14 10.00 Partly Cloudy SCT013 53.6 51.8 94% 30.1 0.0
06 19:55 W 9 10.00 A Few Clouds FEW013 53.6 51.8 94% 30.1 0.0
06 19:35 W 9 10.00 Fair CLR 55.4 51.8 88% 30.1 0.0
06 19:15 W 10 10.00 A Few Clouds FEW015 57.2 51.8 82% 30.1 0.0
06 18:55 W 13 10.00 Fair CLR 59 51.8 77% 30.1 0.0
06 18:35 W 13 10.00 A Few Clouds FEW016 59 51.8 77% 30.1 0.0
06 18:15 W 14 10.00 Fair CLR 60.8 51.8 72% 30.1 0.0
06 17:55 W 10 10.00 A Few Clouds FEW017 60.8 51.8 72% 30.1 0.0
06 17:35 W 14 10.00 Fair CLR 62.6 53.6 73% 30.1 0.0
06 17:15 W 12 10.00 Fair CLR 62.6 53.6 73% 30.1 0.0
06 16:55 W 14 G 20 10.00 Fair CLR 64.4 51.8 64% 30.1 0.0
06 16:35 W 13 10.00 Fair CLR 64.4 53.6 68% 30.1 0.0
06 16:15 W 13 10.00 Fair CLR 64.4 53.6 68% 30.1 0.0
06 15:55 W 12 G 18 10.00 Fair CLR 66.2 53.6 64% 30.1 0.0
06 15:35 W 14 10.00 Fair CLR 66.2 55.4 68% 30.11 0.0
06 15:15 W 13 10.00 Fair CLR 68 55.4 64% 30.11 0.0
06 14:55 W 10 G 16 10.00 Mostly Cloudy BKN037 68 55.4 64% 30.12 0.0
06 14:35 W 10 10.00 Overcast OVC037 68 55.4 64% 30.12 0.0
06 14:15 W 12 10.00 Overcast OVC037 69.8 55.4 60% 30.12 0.0
06 13:55 W 9 10.00 Overcast OVC037 69.8 55.4 60% 30.12 0.0
06 13:35 W 8 10.00 Overcast OVC037 68 55.4 64% 30.13 0.0
06 13:15 W 8 10.00 Overcast OVC038 68 55.4 64% 30.13 0.0
06 12:55 W 10 10.00 Overcast OVC038 68 57.2 69% 30.13 0.0
06 12:35 W 8 10.00 Overcast OVC038 68 57.2 69% 30.14 0.0
06 12:15 W 5 10.00 Overcast OVC040 68 55.4 64% 30.14 0.0
06 11:55 NW 5 10.00 Overcast OVC040 68 55.4 64% 30.14 0.0
06 11:35 N 5 10.00 Overcast OVC042 68 55.4 64% 30.15 0.0
06 11:15 Vrbl 5 10.00 Overcast OVC044 66.2 55.4 68% 30.15 0.0
06 10:55 Vrbl 7 10.00 Mostly Cloudy BKN045 66.2 53.6 64% 30.15 0.0
06 10:35 Vrbl 3 10.00 A Few Clouds FEW020 64.4 53.6 68% 30.15 0.0
06 10:15 Calm 10.00 Fair CLR 62.6 53.6 73% 30.15 0.0
06 09:55 Vrbl 3 10.00 Fair CLR 62.6 53.6 73% 30.15 0.0
06 09:35 NW 3 10.00 Fair CLR 60.8 51.8 72% 30.16 0.0
06 09:15 W 5 10.00 A Few Clouds FEW046 0 0 0% 30.15 0.0
06 08:55 Vrbl 5 10.00 Mostly Cloudy BKN045 59 53.6 82% 30.16 0.0
06 08:35 Calm 10.00 Overcast OVC045 57.2 53.6 88% 30.15 0.0
06 08:15 W 5 10.00 Overcast OVC046 55.4 53.6 94% 30.15 0.0
06 07:55 W 6 10.00 Overcast OVC046 55.4 53.6 94% 30.15 0.0
06 07:35 Calm 10.00 Overcast OVC045 53.6 53.6 100% 30.15 0.0
06 07:15 W 6 10.00 Overcast OVC045 53.6 53.6 100% 30.14 0.0
06 06:55 Calm 10.00 Overcast OVC044 53.6 53.6 100% 30.14 0.0
06 06:35 Calm 10.00 Overcast OVC043 53.6 53.6 100% 30.14 0.0
06 06:15 W 3 10.00 Overcast OVC043 53.6 51.8 94% 30.13 0.0
06 05:55 W 3 10.00 Overcast OVC043 53.6 53.6 100% 30.13 0.0
06 05:35 Calm 10.00 Overcast OVC043 53.6 51.8 94% 30.13 0.0
06 05:15 Calm 10.00 Overcast OVC043 53.6 53.6 100% 30.13 0.0
06 04:55 Calm 10.00 Overcast FEW009 OVC042 53.6 53.6 100% 30.12 0.0
06 04:35 Calm 10.00 Overcast FEW010 OVC041 53.6 53.6 100% 30.12 0.0
06 04:15 Calm 10.00 Overcast FEW010 OVC041 53.6 53.6 100% 30.12 0.0
06 03:55 Calm 10.00 Overcast SCT011 OVC041 53.6 53.6 100% 30.11 0.0
06 03:35 Calm 10.00 Overcast FEW012 OVC041 53.6 53.6 100% 30.11 0.0
06 03:15 Calm 10.00 Overcast FEW011 OVC041 53.6 53.6 100% 30.11 0.0
06 02:55 Calm 10.00 Overcast BKN012 BKN016 OVC042 53.6 53.6 100% 30.11 0.0
06 02:35 W 5 10.00 Overcast OVC014 53.6 53.6 100% 30.11 0.0
06 02:15 Calm 10.00 Overcast BKN012 OVC016 53.6 53.6 100% 30.11 0.0
06 01:50 Calm 10.00 Overcast SCT011 BKN016 OVC038 53.6 53.6 100% 30.11 0.0
06 01:35 Calm 10.00 Overcast BKN011 OVC016 53.6 53.6 100% 30.11 0.0
06 01:15 Calm 10.00 Overcast OVC012 53.6 53.6 100% 30.11 0.0
06 00:55 Calm 10.00 Overcast BKN012 OVC040 53.6 53.6 100% 30.11 0.0
06 00:35 Vrbl 3 10.00 Overcast BKN011 BKN032 OVC041 53.6 53.6 100% 30.1 0.0
06 00:15 Calm 10.00 Overcast SCT012 BKN031 OVC039 53.6 51.8 94% 30.1 0.0
05 23:55 W 5 10.00 Overcast SCT012 BKN031 OVC037 53.6 51.8 94% 30.09 0.0
05 23:35 W 6 10.00 Overcast BKN012 BKN032 OVC037 53.6 51.8 94% 30.09 0.0
05 23:15 W 5 10.00 Overcast BKN012 OVC032 53.6 51.8 94% 30.09 0.0
05 22:55 NW 5 10.00 Overcast SCT012 OVC033 53.6 51.8 94% 30.08 0.0
05 22:35 W 6 10.00 Overcast SCT012 OVC032 53.6 51.8 94% 30.08 0.0
05 22:15 Calm 10.00 Overcast SCT012 OVC032 53.6 53.6 100% 30.08 0.0
05 21:55 Vrbl 3 10.00 Overcast BKN012 OVC033 53.6 51.8 94% 30.07 0.0
05 21:35 Calm 10.00 Overcast SCT012 OVC034 53.6 51.8 94% 30.07 0.0
05 21:10 Vrbl 5 10.00 Overcast FEW013 OVC035 53.6 51.8 94% 30.06 0.0
05 20:55 Calm 10.00 Overcast FEW029 OVC035 53.6 51.8 94% 30.05 0.0
05 20:35 W 7 10.00 Overcast SCT028 OVC035 53.6 51.8 94% 30.05 0.0
05 20:15 W 8 10.00 Overcast BKN028 OVC035 55.4 51.8 88% 30.03 0.0
05 19:55 Vrbl 5 10.00 Overcast OVC027 55.4 50 82% 30.03 0.0
05 19:35 W 10 10.00 Overcast OVC026 55.4 48.2 77% 30.02 0.0
05 19:15 W 10 10.00 Overcast OVC026 57.2 50 77% 30.02 0.0
05 18:55 W 12 10.00 Overcast OVC026 57.2 50 77% 30.01 0.0
05 18:35 W 14 10.00 Overcast OVC026 57.2 50 77% 30.01 0.0
05 18:15 W 13 G 18 10.00 Overcast OVC026 59 50 72% 30.01 0.0
05 17:55 W 12 G 17 10.00 Overcast OVC026 59 50 72% 30 0.0
05 17:35 W 14 10.00 Overcast OVC027 60.8 50 68% 30 0.0
05 17:15 W 12 10.00 Overcast OVC027 62.6 50 64% 29.99 0.0
05 16:55 W 13 10.00 Overcast OVC028 60.8 51.8 72% 29.99 0.0
05 16:35 W 10 G 16 10.00 Overcast OVC027 60.8 51.8 72% 29.99 0.0
05 16:15 W 10 10.00 Overcast OVC027 60.8 51.8 72% 29.99 0.0
05 15:55 W 10 10.00 Overcast OVC028 62.6 51.8 68% 29.99 0.0
05 15:35 W 8 10.00 Overcast OVC027 64.4 51.8 64% 29.99 0.0
05 15:15 Vrbl 6 G 12 10.00 Overcast OVC028 64.4 51.8 64% 29.99 0.0
05 14:55 W 8 10.00 Overcast OVC030 64.4 51.8 64% 29.99 0.0
05 14:30 W 8 10.00 Overcast BKN028 OVC042 66.2 51.8 60% 30 0.0
05 14:15 Vrbl 5 10.00 Overcast BKN027 OVC041 64.4 51.8 64% 30 0.0
05 13:55 W 9 10.00 Overcast BKN026 BKN031 OVC040 64.4 51.8 64% 30.01 0.0
05 13:35 Vrbl 5 10.00 Overcast OVC025 62.6 51.8 68% 30.01 0.0
05 13:15 W 8 10.00 Overcast OVC024 60.8 51.8 72% 30.01 0.0
05 12:55 Vrbl 6 10.00 Overcast OVC024 59 51.8 77% 30.01 0.0
05 12:35 W 6 G 13 10.00 Overcast OVC024 60.8 51.8 72% 30.01 0.0
05 12:10 Vrbl 5 G 15 10.00 Overcast BKN025 OVC029 60.8 51.8 72% 30.01 0.0
05 11:55 W 8 G 14 10.00 Overcast BKN023 OVC028 60.8 53.6 77% 30.01 0.0
05 11:35 W 8 10.00 Overcast OVC022 60.8 51.8 72% 30.01 0.0
05 11:15 W 8 10.00 Overcast OVC022 59 50 72% 30.01 0.0
05 10:55 W 9 10.00 Overcast OVC021 57.2 51.8 82% 30.01 0.0
05 10:35 W 7 10.00 Overcast BKN020 OVC024 57.2 51.8 82% 30 0.0
05 10:15 Vrbl 6 10.00 Overcast SCT018 OVC023 57.2 51.8 82% 30 0.0
05 09:50 NW 6 10.00 Overcast SCT018 BKN023 OVC037 57.2 51.8 82% 30 0.0
05 09:35 W 7 10.00 Mostly Cloudy FEW016 SCT022 BKN032 55.4 53.6 94% 30 0.0
05 09:15 W 9 10.00 Overcast BKN016 BKN022 OVC029 55.4 53.6 94% 30 0.0
05 08:55 W 9 10.00 Overcast BKN013 BKN017 OVC049 55.4 53.6 94% 29.99 0.0
05 08:35 W 6 10.00 Overcast BKN013 OVC050 53.6 53.6 100% 29.99 0.0
05 08:15 W 7 10.00 Overcast BKN012 OVC050 53.6 53.6 100% 29.98 0.0
05 07:55 W 6 10.00 Overcast BKN012 OVC050 53.6 53.6 100% 29.98 0.0
05 07:35 W 7 G 13 10.00 Overcast BKN010 BKN055 OVC070 51.8 51.8 100% 29.98 0.0
05 07:15 Vrbl 6 10.00 Overcast BKN009 OVC012 51.8 51.8 100% 29.97 0.0
05 06:55 Vrbl 6 G 12 10.00 Overcast OVC010 51.8 51.8 100% 29.97 0.0
05 06:35 Vrbl 3 10.00 Overcast OVC008 51.8 51.8 100% 29.97 0.0
05 06:15 Calm 10.00 Overcast OVC007 51.8 51.8 100% 29.96 0.0
05 05:55 Calm 10.00 Overcast OVC007 51.8 51.8 100% 29.96 0.0
05 05:35 Calm 10.00 Overcast OVC007 51.8 51.8 100% 29.96 0.0
Date Time (pdt) Wind (mph) Vis. (mi.) Weather Sky Cond. Air Dwpt Max. Min. Relative Humidity Wind Chill (°F) Heat Index (°F) altimeter (in) sea level (mb) 1 hr 3 hr 6 hr
6 hour
Temperature (ºF) Pressure Precipitation (in)